Hatsu Excel — VSXV3 — position and weather

sailwx.info

Track history (hours):
 
Tides and Currents Weather Stations Pressure Air Temp Water Temp Dewpoint Dewpoint Depression Visibility Wind Speed Wind Dir Waves Ship Positions

Hatsu Excel

Last reported at 2017-Jan-19 10:33 UTC. Time now 2017-Jan-19 10:55 UTC.
Position N 49°17' W 123°05'.

Type: Cargo ship. MMSI: 235479000.

Date/timePositionNaut miles runAvg speedWind from/ knotsBaromVisibWave heightAir tempDewpointWater temp
2017-Jan-19 10:33N 49°17' W 123°05'0 0.0
2017-Jan-19 09:33N 49°17' W 123°05'0 0.0
2017-Jan-19 08:33N 49°17' W 123°05'0 0.0
2017-Jan-19 07:33N 49°17' W 123°05'0 0.0
2017-Jan-19 06:33N 49°17' W 123°05'0 0.0
2017-Jan-19 05:33N 49°17' W 123°05'0 0.0
2017-Jan-19 04:33N 49°17' W 123°05'0 0.0
2017-Jan-19 03:33N 49°17' W 123°05'0 0.0
2017-Jan-19 02:33N 49°17' W 123°05'0 0.0
2017-Jan-19 01:33N 49°17' W 123°05'0 0.0
2017-Jan-19 00:33N 49°17' W 123°05'0 0.0
2017-Jan-18 23:33N 49°17' W 123°05'0 0.0
2017-Jan-18 22:33N 49°17' W 123°05'0 0.0
2017-Jan-18 21:33N 49°17' W 123°05'0 0.0
2017-Jan-18 20:33N 49°17' W 123°05'0 0.0
2017-Jan-18 19:33N 49°17' W 123°05'0 0.0
2017-Jan-18 18:33N 49°17' W 123°05'0 0.0
2017-Jan-18 17:33N 49°17' W 123°05'0 0.0
2017-Jan-18 16:33N 49°17' W 123°05'0 0.0
2017-Jan-18 15:33N 49°17' W 123°05'0 0.0
2017-Jan-18 14:33N 49°17' W 123°05'0 0.0
2017-Jan-18 13:33N 49°17' W 123°05'0 0.0
2017-Jan-18 12:33N 49°17' W 123°05'0 0.0
2017-Jan-18 11:33N 49°17' W 123°05'0 0.0
2017-Jan-18 10:33N 49°17' W 123°05'0 0.0
2017-Jan-18 09:33N 49°17' W 123°05'0 0.0
2017-Jan-18 08:33N 49°17' W 123°05'0 0.0
2017-Jan-18 07:32N 49°17' W 123°05'0 0.0
2017-Jan-18 06:32N 49°17' W 123°05'0 0.0
2017-Jan-18 05:32N 49°17' W 123°05'0 0.0
2017-Jan-18 04:32N 49°17' W 123°05'0 0.0
2017-Jan-18 03:32N 49°17' W 123°05'0 0.0
2017-Jan-18 02:32N 49°17' W 123°05'0 0.0
2017-Jan-18 01:32N 49°17' W 123°05'0 0.0
2017-Jan-18 00:32N 49°17' W 123°05'0 0.2
2017-Jan-17 23:34N 49°17' W 123°05'5 5.2
2017-Jan-17 22:34N 49°19' W 123°13'1514.9
2017-Jan-17 21:33N 49°05' W 123°20'1918.9
2017-Jan-17 20:33N 48°50' W 123°01'1414.5
2017-Jan-17 19:33N 48°39' W 123°14'1615.8
2017-Jan-17 18:34N 48°23' W 123°15'1211.7
2017-Jan-17 17:34N 48°14' W 123°27'1010.2
2017-Jan-17 16:33N 48°12' W 123°11'1717.1
2017-Jan-17 15:33N 48°11' W 122°46'1717.0
2017-Jan-17 14:34N 47°57' W 122°32'1818.4
2017-Jan-17 13:34N 47°39' W 122°27'1717.0
2017-Jan-17 12:34N 47°22' W 122°23'6 5.9
2017-Jan-17 11:33N 47°16' W 122°24'1 0.3
2017-Jan-17 08:19N 47°15' W 122°23'0 0.0
2017-Jan-16 23:19N 47°15' W 122°23'2 0.1
2017-Jan-15 22:33N 47°17' W 122°25'6 6.4
2017-Jan-15 21:33N 47°23' W 122°22'1616.4
2017-Jan-15 20:33N 47°39' W 122°28'1717.3
2017-Jan-15 19:34N 47°56' W 122°31'1716.0
2017-Jan-15 18:31N 48°10' W 122°45'1717.1
2017-Jan-15 17:33N 48°12' W 123°10'1111.3
2017-Jan-15 16:33N 48°11' W 123°27'1212.2
2017-Jan-15 15:33N 48°13' W 123°45'1413.6
2017-Jan-15 14:33N 48°16' W 124°04'1414.0
2017-Jan-15 13:34N 48°22' W 124°23'1414.5
2017-Jan-15 12:34N 48°28' W 124°43'1414.5
2017-Jan-15 11:34N 48°28' W 125°05'1414.0
2017-Jan-15 10:33N 48°28' W 125°26'1414.2
2017-Jan-15 09:33N 48°29' W 125°48'1414.2
2017-Jan-15 08:33N 48°29' W 126°09'1514.5
2017-Jan-15 07:33N 48°29' W 126°31'4414.5
2017-Jan-15 04:32N 48°29' W 127°37'  
Track history (hours):
 
Tides and Currents Weather Stations Pressure Air Temp Water Temp Dewpoint Dewpoint Depression Visibility Wind Speed Wind Dir Waves Ship Positions

Hatsu Excel

Last reported at 2017-Jan-19 10:33 UTC. Time now 2017-Jan-19 10:55 UTC.
Position N 49°17' W 123°05'.

Type: Cargo ship. MMSI: 235479000.

Date/timePositionNaut miles runAvg speedWind from/ knotsBaromVisibWave heightAir tempDewpointWater temp
2017-Jan-19 10:33N 49°17' W 123°05'0 0.0
2017-Jan-19 09:33N 49°17' W 123°05'0 0.0
2017-Jan-19 08:33N 49°17' W 123°05'0 0.0
2017-Jan-19 07:33N 49°17' W 123°05'0 0.0
2017-Jan-19 06:33N 49°17' W 123°05'0 0.0
2017-Jan-19 05:33N 49°17' W 123°05'0 0.0
2017-Jan-19 04:33N 49°17' W 123°05'0 0.0
2017-Jan-19 03:33N 49°17' W 123°05'0 0.0
2017-Jan-19 02:33N 49°17' W 123°05'0 0.0
2017-Jan-19 01:33N 49°17' W 123°05'0 0.0
2017-Jan-19 00:33N 49°17' W 123°05'0 0.0
2017-Jan-18 23:33N 49°17' W 123°05'0 0.0
2017-Jan-18 22:33N 49°17' W 123°05'0 0.0
2017-Jan-18 21:33N 49°17' W 123°05'0 0.0
2017-Jan-18 20:33N 49°17' W 123°05'0 0.0
2017-Jan-18 19:33N 49°17' W 123°05'0 0.0
2017-Jan-18 18:33N 49°17' W 123°05'0 0.0
2017-Jan-18 17:33N 49°17' W 123°05'0 0.0
2017-Jan-18 16:33N 49°17' W 123°05'0 0.0
2017-Jan-18 15:33N 49°17' W 123°05'0 0.0
2017-Jan-18 14:33N 49°17' W 123°05'0 0.0
2017-Jan-18 13:33N 49°17' W 123°05'0 0.0
2017-Jan-18 12:33N 49°17' W 123°05'0 0.0
2017-Jan-18 11:33N 49°17' W 123°05'0 0.0
2017-Jan-18 10:33N 49°17' W 123°05'0 0.0
2017-Jan-18 09:33N 49°17' W 123°05'0 0.0
2017-Jan-18 08:33N 49°17' W 123°05'0 0.0
2017-Jan-18 07:32N 49°17' W 123°05'0 0.0
2017-Jan-18 06:32N 49°17' W 123°05'0 0.0
2017-Jan-18 05:32N 49°17' W 123°05'0 0.0
2017-Jan-18 04:32N 49°17' W 123°05'0 0.0
2017-Jan-18 03:32N 49°17' W 123°05'0 0.0
2017-Jan-18 02:32N 49°17' W 123°05'0 0.0
2017-Jan-18 01:32N 49°17' W 123°05'0 0.0
2017-Jan-18 00:32N 49°17' W 123°05'0 0.2
2017-Jan-17 23:34N 49°17' W 123°05'5 5.2
2017-Jan-17 22:34N 49°19' W 123°13'1514.9
2017-Jan-17 21:33N 49°05' W 123°20'1918.9
2017-Jan-17 20:33N 48°50' W 123°01'1414.5
2017-Jan-17 19:33N 48°39' W 123°14'1615.8
2017-Jan-17 18:34N 48°23' W 123°15'1211.7
2017-Jan-17 17:34N 48°14' W 123°27'1010.2
2017-Jan-17 16:33N 48°12' W 123°11'1717.1
2017-Jan-17 15:33N 48°11' W 122°46'1717.0
2017-Jan-17 14:34N 47°57' W 122°32'1818.4
2017-Jan-17 13:34N 47°39' W 122°27'1717.0
2017-Jan-17 12:34N 47°22' W 122°23'6 5.9
2017-Jan-17 11:33N 47°16' W 122°24'1 0.3
2017-Jan-17 08:19N 47°15' W 122°23'0 0.0
2017-Jan-16 23:19N 47°15' W 122°23'2 0.1
2017-Jan-15 22:33N 47°17' W 122°25'6 6.4
2017-Jan-15 21:33N 47°23' W 122°22'1616.4
2017-Jan-15 20:33N 47°39' W 122°28'1717.3
2017-Jan-15 19:34N 47°56' W 122°31'1716.0
2017-Jan-15 18:31N 48°10' W 122°45'1717.1
2017-Jan-15 17:33N 48°12' W 123°10'1111.3
2017-Jan-15 16:33N 48°11' W 123°27'1212.2
2017-Jan-15 15:33N 48°13' W 123°45'1413.6
2017-Jan-15 14:33N 48°16' W 124°04'1414.0
2017-Jan-15 13:34N 48°22' W 124°23'1414.5
2017-Jan-15 12:34N 48°28' W 124°43'1414.5
2017-Jan-15 11:34N 48°28' W 125°05'1414.0
2017-Jan-15 10:33N 48°28' W 125°26'1414.2
2017-Jan-15 09:33N 48°29' W 125°48'1414.2
2017-Jan-15 08:33N 48°29' W 126°09'1514.5
2017-Jan-15 07:33N 48°29' W 126°31'4414.5
2017-Jan-15 04:32N 48°29' W 127°37'  

Dump ship's entire track history